createdAt,value
2022-12-23T00:01:25.657Z,98971.97
2022-12-23T00:03:52.737Z,98975.16
2022-12-23T00:06:20.226Z,98975.34
2022-12-23T00:08:46.922Z,98968.50
2022-12-23T00:11:19.319Z,98964.25
2022-12-23T00:14:04.963Z,98959.88
2022-12-23T00:16:31.604Z,98952.94
2022-12-23T00:18:58.179Z,98955.41
2022-12-23T00:21:24.699Z,98948.69
2022-12-23T00:23:51.710Z,98948.50
2022-12-23T00:26:23.635Z,98950.28
2022-12-23T00:28:51.069Z,98959.34
2022-12-23T00:31:19.250Z,98953.28
2022-12-23T00:33:48.293Z,98955.59
2022-12-23T00:36:20.522Z,98953.75
2022-12-23T00:39:05.913Z,98952.13
2022-12-23T00:41:51.256Z,98953.75
2022-12-23T00:44:17.811Z,98947.88
2022-12-23T00:46:44.362Z,98939.44
2022-12-23T00:49:34.374Z,98934.88
2022-12-23T00:52:01.081Z,98943.63
2022-12-23T00:54:28.000Z,98936.97
2022-12-23T00:56:54.742Z,98937.72
2022-12-23T00:59:21.241Z,98939.44
2022-12-23T01:02:06.222Z,98936.06
2022-12-23T01:04:51.263Z,98937.84
2022-12-23T01:07:17.876Z,98932.06
2022-12-23T01:09:44.423Z,98934.88
2022-12-23T01:12:10.944Z,98934.06
2022-12-23T01:14:37.575Z,98930.34
2022-12-23T01:17:06.031Z,98938.72
2022-12-23T01:19:32.627Z,98929.25
2022-12-23T01:21:59.188Z,98927.88
2022-12-23T01:24:32.395Z,98936.41
2022-12-23T01:26:59.810Z,98930.22
2022-12-23T01:29:26.405Z,98926.97
2022-12-23T01:31:52.987Z,98934.72
2022-12-23T01:34:19.816Z,98932.94
2022-12-23T01:36:46.293Z,98929.59
2022-12-23T01:39:12.941Z,98922.03
2022-12-23T01:41:58.003Z,98922.63
2022-12-23T01:44:49.027Z,98917.78
2022-12-23T01:47:22.270Z,98924.28
2022-12-23T01:49:51.016Z,98912.00
2022-12-23T01:52:17.536Z,98914.25
2022-12-23T01:54:44.739Z,98913.47
2022-12-23T01:57:12.070Z,98910.94
2022-12-23T01:59:57.958Z,98903.03
2022-12-23T02:02:44.881Z,98901.47
2022-12-23T02:05:12.242Z,98901.63
2022-12-23T02:07:58.236Z,98898.31
2022-12-23T02:10:41.408Z,98895.00
2022-12-23T02:13:19.447Z,98897.44
2022-12-23T02:16:09.737Z,98889.66
2022-12-23T02:19:13.473Z,98893.13
2022-12-23T02:22:01.585Z,98892.72
2022-12-23T02:25:06.697Z,98888.78
2022-12-23T11:45:43.934Z,98851.03
2022-12-23T11:48:28.533Z,98849.56
2022-12-23T11:51:01.169Z,98848.75
2022-12-23T11:53:28.120Z,98849.06
2022-12-23T11:56:05.355Z,98858.63
2022-12-23T11:58:40.623Z,98859.72
2022-12-23T12:01:14.853Z,98862.25
2022-12-23T12:03:48.533Z,98858.09
2022-12-23T12:06:17.165Z,98854.47
2022-12-23T12:08:43.762Z,98869.53
2022-12-23T12:11:17.248Z,98864.53
2022-12-23T12:13:48.452Z,98869.47
2022-12-23T12:16:34.171Z,98880.47
2022-12-23T12:19:10.865Z,98875.81
2022-12-23T12:21:38.841Z,98876.41
2022-12-23T12:24:22.755Z,98864.00
2022-12-23T12:26:52.851Z,98875.28
2022-12-23T12:29:37.252Z,98877.28
2022-12-23T12:32:10.416Z,98882.88
2022-12-23T12:34:56.414Z,98883.06
2022-12-23T12:37:36.745Z,98881.16
2022-12-23T12:40:26.205Z,98874.66
2022-12-23T12:43:12.577Z,98882.72
2022-12-23T12:45:42.836Z,98891.78
2022-12-23T12:48:25.239Z,98884.97
2022-12-23T12:51:26.191Z,98890.75
2022-12-23T12:54:16.266Z,98883.41
2022-12-23T12:56:50.127Z,98889.44
2022-12-23T12:59:19.798Z,98887.38
2022-12-23T13:02:00.752Z,98891.41
2022-12-23T13:04:30.359Z,98884.91
2022-12-23T13:07:08.241Z,98890.19
2022-12-23T13:10:00.269Z,98886.78
2022-12-23T13:12:36.091Z,98884.91
2022-12-23T13:15:23.674Z,98884.59
2022-12-23T13:18:13.349Z,98879.47
2022-12-23T13:20:48.655Z,98886.75
2022-12-23T13:23:42.776Z,98888.69
2022-12-23T13:26:34.785Z,98893.00
2022-12-23T13:29:22.529Z,98887.63
2022-12-23T13:31:58.460Z,98899.22
2022-12-23T13:34:27.923Z,98896.13
2022-12-23T13:37:09.961Z,98895.16
2022-12-23T13:39:56.407Z,98888.81
2022-12-23T13:42:34.283Z,98885.38
2022-12-23T13:45:01.998Z,98884.16
2022-12-23T13:47:47.389Z,98889.50
2022-12-23T13:50:23.136Z,98888.84
2022-12-23T13:52:55.497Z,98885.84
2022-12-23T13:55:47.285Z,98896.66
2022-12-23T13:58:18.341Z,98896.34
2022-12-23T14:00:44.943Z,98901.31
2022-12-23T14:03:14.065Z,98898.47
2022-12-23T14:05:51.139Z,98903.81
2022-12-23T14:08:25.742Z,98905.41
2022-12-23T14:11:03.077Z,98913.53
2022-12-23T14:14:05.987Z,98924.28
2022-12-23T14:16:56.822Z,98927.31
2022-12-23T14:19:51.054Z,98918.47
2022-12-23T14:22:32.648Z,98928.50
2022-12-23T14:25:21.767Z,98919.16
2022-12-23T14:27:59.961Z,98922.19
2022-12-23T14:30:42.816Z,98924.44
2022-12-23T14:33:18.574Z,98926.31
2022-12-23T14:35:45.087Z,98928.59
2022-12-23T14:38:14.302Z,98930.41
2022-12-23T14:40:48.576Z,98937.03
2022-12-23T14:43:27.066Z,98941.13
2022-12-23T14:45:58.118Z,98945.66
2022-12-23T14:48:33.653Z,98946.41
2022-12-23T14:51:09.900Z,98938.16
2022-12-23T14:53:58.192Z,98950.84
2022-12-23T14:56:39.778Z,98940.34
2022-12-23T14:59:09.014Z,98944.56
2022-12-23T15:01:46.655Z,98938.63
2022-12-23T15:04:27.214Z,98936.91
2022-12-23T15:06:58.790Z,98930.22
2022-12-23T15:09:31.846Z,98925.97
2022-12-23T15:12:11.085Z,98927.47
2022-12-23T15:14:43.040Z,98933.44
2022-12-23T15:17:38.783Z,98945.09
2022-12-23T15:33:02.478Z,98924.34
2022-12-23T15:35:32.806Z,98921.38
2022-12-23T15:38:01.819Z,98923.28
2022-12-23T15:40:37.068Z,98929.84
2022-12-23T15:43:24.020Z,98925.75
2022-12-23T15:45:50.998Z,98921.72
2022-12-23T15:48:32.292Z,98917.50
2022-12-23T15:51:08.346Z,98922.56
2022-12-23T15:53:37.209Z,98924.13
2022-12-23T15:56:08.322Z,98918.25
2022-12-23T15:58:37.486Z,98923.31
2022-12-23T16:01:04.860Z,98920.00
2022-12-23T16:03:39.358Z,98921.47
2022-12-23T16:06:25.320Z,98929.78
2022-12-23T16:09:05.318Z,98923.44
2022-12-23T16:11:56.726Z,98921.44
2022-12-23T16:14:31.170Z,98920.59
2022-12-23T16:17:07.631Z,98916.34
2022-12-23T16:19:42.240Z,98916.22
2022-12-23T16:22:37.313Z,98910.47
2022-12-23T16:25:24.854Z,98921.69
2022-12-23T16:28:07.757Z,98920.84
2022-12-23T16:30:37.279Z,98909.84
2022-12-23T16:33:32.014Z,98921.69
2022-12-23T16:36:34.585Z,98909.84
2022-12-23T16:39:16.998Z,98892.03
2022-12-23T16:41:43.532Z,98935.63
2022-12-23T16:44:10.054Z,98899.88
2022-12-23T16:46:39.813Z,98935.34
2022-12-23T16:49:11.176Z,98912.59
2022-12-23T16:51:39.528Z,98930.28
2022-12-23T16:54:06.091Z,98933.63
2022-12-23T16:56:37.442Z,98927.34
2022-12-23T16:59:04.558Z,98916.00
2022-12-23T17:01:35.225Z,98922.50
2022-12-23T17:04:02.209Z,98915.16
2022-12-23T17:06:28.799Z,98922.47
2022-12-23T17:08:56.889Z,98933.34
2022-12-23T17:11:47.136Z,98928.16
2022-12-23T17:14:20.375Z,98917.66
2022-12-23T17:16:48.111Z,98925.16
2022-12-23T17:19:15.525Z,98924.59
2022-12-23T17:21:44.475Z,98925.41
2022-12-23T17:24:22.062Z,98923.00
2022-12-23T17:26:48.681Z,98913.91
2022-12-23T17:29:15.331Z,98913.22
2022-12-23T17:31:43.785Z,98910.81
2022-12-23T17:34:16.110Z,98909.19
2022-12-23T17:36:49.315Z,98910.09
2022-12-23T17:39:16.840Z,98912.53
2022-12-23T17:41:43.404Z,98911.94
2022-12-23T17:44:13.919Z,98908.50
2022-12-23T17:46:40.446Z,98909.44
2022-12-23T17:49:06.929Z,98915.94
2022-12-23T17:51:33.603Z,98920.94
2022-12-23T17:54:00.142Z,98919.44
2022-12-23T17:56:28.758Z,98920.31
2022-12-23T17:58:55.408Z,98920.50
2022-12-23T18:01:25.200Z,98920.44
2022-12-23T18:03:52.657Z,98919.69
2022-12-23T18:06:20.783Z,98911.16
2022-12-23T18:08:47.863Z,98905.31
2022-12-23T18:11:44.763Z,98911.03
2022-12-23T18:14:14.503Z,98911.63
2022-12-23T18:16:41.025Z,98910.69
2022-12-23T18:19:18.100Z,98910.69
2022-12-23T18:21:44.975Z,98917.59
2022-12-23T18:24:11.491Z,98916.09
2022-12-23T18:26:38.089Z,98922.66
2022-12-23T18:29:04.746Z,98907.47
2022-12-23T18:31:31.452Z,98921.84
2022-12-23T18:33:59.637Z,98921.69
2022-12-23T18:36:31.251Z,98919.28
2022-12-23T18:38:57.809Z,98921.69
2022-12-23T18:41:25.923Z,98925.31
2022-12-23T23:21:29.369Z,98871.34
2022-12-23T23:23:55.889Z,98881.78
2022-12-23T23:26:26.764Z,98878.50
2022-12-23T23:28:54.694Z,98876.97
2022-12-23T23:34:07.899Z,98870.34
2022-12-23T23:36:34.642Z,98866.06
2022-12-23T23:39:01.224Z,98860.06
2022-12-23T23:41:27.771Z,98864.94
2022-12-23T23:43:54.261Z,98856.22
2022-12-23T23:46:20.824Z,98862.03
2022-12-23T23:48:47.690Z,98854.38
2022-12-23T23:51:14.236Z,98858.84
2022-12-23T23:53:40.831Z,98846.81
2022-12-23T23:56:08.322Z,98853.66
2022-12-23T23:58:36.448Z,98848.34
